Time,TemperatureF,DewpointF,PressureIn,WindDirection,WindDirectionDegrees,WindSpeedMPH,WindSpeedGustMPH,Humidity,HourlyPrecipIn,Conditions,Clouds,dailyrainin,SoftwareType,DateUTC
2013-07-08 00:02:00,80.5,73.0,30.07,East,96,0.0,-999.0,78,-99.99,,,0.03,weatherlink.com 1.10,2013-07-08 04:02:00,
2013-07-08 00:17:00,80.2,73.0,30.07,East,95,0.0,-999.0,78,-99.99,,,0.03,weatherlink.com 1.10,2013-07-08 04:17:00,
2013-07-08 00:32:00,79.9,73.0,30.07,ENE,72,2.0,-999.0,78,-99.99,,,0.03,weatherlink.com 1.10,2013-07-08 04:32:00,
2013-07-08 00:47:00,79.7,72.0,30.07,East,85,0.0,-999.0,78,-99.99,,,0.03,weatherlink.com 1.10,2013-07-08 04:47:00,
2013-07-08 01:02:00,79.5,72.0,30.07,East,89,0.0,-999.0,78,-99.99,,,0.03,weatherlink.com 1.10,2013-07-08 05:02:00,
2013-07-08 01:17:00,79.2,72.0,30.06,East,90,1.0,-999.0,79,-99.99,,,0.03,weatherlink.com 1.10,2013-07-08 05:17:00,
2013-07-08 01:32:00,79.0,72.0,30.06,East,96,1.0,-999.0,79,-99.99,,,0.03,weatherlink.com 1.10,2013-07-08 05:32:00,
2013-07-08 01:48:00,78.8,72.0,30.07,ESE,107,0.0,-999.0,79,-99.99,,,0.03,weatherlink.com 1.10,2013-07-08 05:48:00,
2013-07-08 02:03:00,78.5,72.0,30.06,ESE,110,2.0,-999.0,79,-99.99,,,0.03,weatherlink.com 1.10,2013-07-08 06:03:00,
2013-07-08 02:18:00,78.4,72.0,30.05,ESE,110,0.0,-999.0,80,-99.99,,,0.00,weatherlink.com 1.10,2013-07-08 06:18:00,
2013-07-08 02:33:00,78.3,72.0,30.05,ESE,109,0.0,-999.0,80,-99.99,,,0.00,weatherlink.com 1.10,2013-07-08 06:33:00,
2013-07-08 02:48:00,78.1,72.0,30.04,ESE,110,0.0,-999.0,80,-99.99,,,0.00,weatherlink.com 1.10,2013-07-08 06:48:00,
2013-07-08 03:03:00,77.9,71.0,30.04,ESE,113,0.0,-999.0,80,-99.99,,,0.00,weatherlink.com 1.10,2013-07-08 07:03:00,
2013-07-08 03:18:00,77.7,71.0,30.04,ESE,113,0.0,-999.0,81,-99.99,,,0.00,weatherlink.com 1.10,2013-07-08 07:18:00,
2013-07-08 03:33:00,77.5,71.0,30.04,ESE,113,1.0,-999.0,81,-99.99,,,0.00,weatherlink.com 1.10,2013-07-08 07:33:00,
2013-07-08 03:48:00,77.2,71.0,30.04,East,100,1.0,-999.0,81,-99.99,,,0.00,weatherlink.com 1.10,2013-07-08 07:48:00,
2013-07-08 04:03:00,77.0,71.0,30.03,East,96,0.0,-999.0,82,-99.99,,,0.00,weatherlink.com 1.10,2013-07-08 08:03:00,
2013-07-08 04:18:00,76.7,71.0,30.03,East,94,1.0,-999.0,82,-99.99,,,0.00,weatherlink.com 1.10,2013-07-08 08:18:00,
2013-07-08 04:33:00,76.5,71.0,30.03,East,95,0.0,-999.0,82,-99.99,,,0.00,weatherlink.com 1.10,2013-07-08 08:33:00,
2013-07-08 04:48:00,76.5,71.0,30.03,East,98,0.0,-999.0,83,-99.99,,,0.00,weatherlink.com 1.10,2013-07-08 08:48:00,
2013-07-08 05:03:00,76.4,71.0,30.02,ESE,120,0.0,-999.0,83,-99.99,,,0.00,weatherlink.com 1.10,2013-07-08 09:03:00,
2013-07-08 05:18:00,76.5,71.0,30.02,East,101,1.0,-999.0,83,-99.99,,,0.01,weatherlink.com 1.10,2013-07-08 09:18:00,
2013-07-08 05:33:00,76.4,71.0,30.03,ESE,121,1.0,-999.0,83,-99.99,,,0.01,weatherlink.com 1.10,2013-07-08 09:33:00,
2013-07-08 05:48:00,76.3,71.0,30.03,ENE,78,2.0,-999.0,83,-99.99,,,0.01,weatherlink.com 1.10,2013-07-08 09:48:00,
2013-07-08 06:03:00,76.3,71.0,30.04,East,92,1.0,-999.0,83,-99.99,,,0.01,weatherlink.com 1.10,2013-07-08 10:03:00,
2013-07-08 06:18:00,76.2,71.0,30.04,ENE,77,2.0,-999.0,83,-99.99,,,0.01,weatherlink.com 1.10,2013-07-08 10:18:00,
2013-07-08 06:33:00,76.2,71.0,30.04,ENE,65,1.0,-999.0,83,-99.99,,,0.01,weatherlink.com 1.10,2013-07-08 10:33:00,
2013-07-08 06:48:00,76.1,71.0,30.05,East,96,4.0,-999.0,83,-99.99,,,0.01,weatherlink.com 1.10,2013-07-08 10:48:00,
2013-07-08 07:03:00,76.1,71.0,30.05,East,101,1.0,-999.0,83,-99.99,,,0.01,weatherlink.com 1.10,2013-07-08 11:03:00,
2013-07-08 07:18:00,76.1,71.0,30.05,East,98,4.0,-999.0,83,-99.99,,,0.01,weatherlink.com 1.10,2013-07-08 11:18:00,
2013-07-08 07:33:00,76.3,71.0,30.05,East,91,0.0,-999.0,84,-99.99,,,0.01,weatherlink.com 1.10,2013-07-08 11:33:00,
2013-07-08 07:48:00,76.6,72.0,30.05,ESE,107,0.0,-999.0,84,-99.99,,,0.01,weatherlink.com 1.10,2013-07-08 11:48:00,
2013-07-08 08:03:00,77.2,72.0,30.05,ESE,108,0.0,-999.0,83,-99.99,,,0.01,weatherlink.com 1.10,2013-07-08 12:03:00,
2013-07-08 08:18:00,77.8,72.0,30.05,ESE,118,1.0,-999.0,83,-99.99,,,0.01,weatherlink.com 1.10,2013-07-08 12:18:00,
2013-07-08 08:33:00,79.0,73.0,30.05,ENE,76,1.0,-999.0,82,-99.99,,,0.01,weatherlink.com 1.10,2013-07-08 12:33:00,
2013-07-08 08:48:00,80.2,74.0,30.06,SE,130,4.0,-999.0,80,-99.99,,,0.01,weatherlink.com 1.10,2013-07-08 12:48:00,
2013-07-08 09:03:00,81.2,74.0,30.07,East,82,4.0,-999.0,78,-99.99,,,0.01,weatherlink.com 1.10,2013-07-08 13:03:00,
2013-07-08 09:18:00,81.8,74.0,30.07,NNE,29,9.0,-999.0,77,-99.99,,,0.01,weatherlink.com 1.10,2013-07-08 13:18:00,
2013-07-08 09:33:00,82.4,74.0,30.07,East,97,1.0,-999.0,76,-99.99,,,0.01,weatherlink.com 1.10,2013-07-08 13:33:00,
2013-07-08 09:48:00,83.1,74.0,30.07,ENE,70,2.0,-999.0,75,-99.99,,,0.01,weatherlink.com 1.10,2013-07-08 13:48:00,
2013-07-08 10:03:00,83.5,75.0,30.08,ESE,117,0.0,-999.0,75,-99.99,,,0.01,weatherlink.com 1.10,2013-07-08 14:03:00,
2013-07-08 10:18:00,84.1,75.0,30.08,East,80,1.0,-999.0,74,-99.99,,,0.01,weatherlink.com 1.10,2013-07-08 14:18:00,
2013-07-08 10:33:00,84.1,74.0,30.09,SE,136,4.0,-999.0,72,-99.99,,,0.01,weatherlink.com 1.10,2013-07-08 14:33:00,
2013-07-08 10:48:00,84.2,75.0,30.09,ESE,106,2.0,-999.0,73,-99.99,,,0.01,weatherlink.com 1.10,2013-07-08 14:48:00,
2013-07-08 11:03:00,85.3,75.0,30.09,NE,50,3.0,-999.0,71,-99.99,,,0.01,weatherlink.com 1.10,2013-07-08 15:03:00,
2013-07-08 11:18:00,85.5,75.0,30.09,SSE,160,1.0,-999.0,71,-99.99,,,0.01,weatherlink.com 1.10,2013-07-08 15:18:00,
2013-07-08 11:33:00,85.9,75.0,30.09,NE,50,2.0,-999.0,70,-99.99,,,0.01,weatherlink.com 1.10,2013-07-08 15:33:00,
2013-07-08 11:49:00,85.9,75.0,30.10,ENE,65,5.0,-999.0,69,-99.99,,,0.02,weatherlink.com 1.10,2013-07-08 15:49:00,
2013-07-08 12:04:00,85.9,75.0,30.09,East,92,9.0,-999.0,69,-99.99,,,0.02,weatherlink.com 1.10,2013-07-08 16:04:00,
2013-07-08 12:19:00,85.6,74.0,30.10,ENE,62,0.0,-999.0,69,-99.99,,,0.02,weatherlink.com 1.10,2013-07-08 16:19:00,
2013-07-08 12:34:00,86.5,74.0,30.09,ENE,58,4.0,-999.0,67,-99.99,,,0.02,weatherlink.com 1.10,2013-07-08 16:34:00,
2013-07-08 12:49:00,87.2,75.0,30.09,ENE,62,3.0,-999.0,66,-99.99,,,0.02,weatherlink.com 1.10,2013-07-08 16:49:00,
2013-07-08 13:19:00,88.2,75.0,30.09,East,89,2.0,-999.0,64,-99.99,,,0.02,weatherlink.com 1.10,2013-07-08 17:19:00,
2013-07-08 13:49:00,88.8,74.0,30.09,SSE,164,7.0,-999.0,61,-99.99,,,0.02,weatherlink.com 1.10,2013-07-08 17:49:00,
2013-07-08 14:04:00,89.0,74.0,30.08,SE,136,4.0,-999.0,61,-99.99,,,0.02,weatherlink.com 1.10,2013-07-08 18:04:00,
2013-07-08 14:19:00,89.3,74.0,30.08,ESE,119,2.0,-999.0,60,-99.99,,,0.02,weatherlink.com 1.10,2013-07-08 18:19:00,
2013-07-08 14:34:00,88.6,74.0,30.07,ENE,58,0.0,-999.0,63,-99.99,,,0.02,weatherlink.com 1.10,2013-07-08 18:34:00,
2013-07-08 15:04:00,89.7,73.0,30.06,ENE,74,5.0,-999.0,58,-99.99,,,0.02,weatherlink.com 1.10,2013-07-08 19:04:00,
2013-07-08 15:19:00,90.0,74.0,30.05,East,85,2.0,-999.0,59,-99.99,,,0.02,weatherlink.com 1.10,2013-07-08 19:19:00,
2013-07-08 15:34:00,89.9,73.0,30.06,South,173,7.0,-999.0,58,-99.99,,,0.02,weatherlink.com 1.10,2013-07-08 19:34:00,
2013-07-08 15:49:00,86.0,76.0,30.06,SW,236,16.0,-999.0,72,-99.99,,,0.02,weatherlink.com 1.10,2013-07-08 19:49:00,
2013-07-08 16:34:00,83.3,75.0,30.04,West,263,8.0,-999.0,75,-99.99,,,0.02,weatherlink.com 1.10,2013-07-08 20:34:00,
2013-07-08 16:49:00,83.5,75.0,30.04,WSW,252,4.0,-999.0,76,-99.99,,,0.02,weatherlink.com 1.10,2013-07-08 20:49:00,
2013-07-08 17:04:00,79.1,71.0,30.05,North,355,19.0,-999.0,75,-99.99,,,0.02,weatherlink.com 1.10,2013-07-08 21:04:00,
2013-07-08 17:19:00,77.6,70.0,30.03,NW,319,3.0,-999.0,77,-99.99,,,0.02,weatherlink.com 1.10,2013-07-08 21:19:00,
2013-07-08 17:34:00,79.0,71.0,30.02,NW,304,4.0,-999.0,76,-99.99,,,0.02,weatherlink.com 1.10,2013-07-08 21:34:00,
2013-07-08 17:49:00,81.8,72.0,30.03,North,355,5.0,-999.0,72,-99.99,,,0.02,weatherlink.com 1.10,2013-07-08 21:49:00,
2013-07-08 18:04:00,81.9,74.0,30.03,NNW,345,0.0,-999.0,76,-99.99,,,0.02,weatherlink.com 1.10,2013-07-08 22:04:00,
2013-07-08 18:19:00,82.6,75.0,30.03,NNW,345,0.0,-999.0,77,-99.99,,,0.02,weatherlink.com 1.10,2013-07-08 22:19:00,
2013-07-08 18:34:00,83.0,75.0,30.03,ENE,70,3.0,-999.0,76,-99.99,,,0.02,weatherlink.com 1.10,2013-07-08 22:34:00,
2013-07-08 18:49:00,80.8,73.0,30.03,ENE,65,7.0,-999.0,77,-99.99,,,0.02,weatherlink.com 1.10,2013-07-08 22:49:00,
2013-07-08 19:04:00,79.8,72.0,30.03,NE,49,2.0,-999.0,78,-99.99,,,0.02,weatherlink.com 1.10,2013-07-08 23:04:00,
2013-07-08 19:19:00,80.9,73.0,30.02,NE,49,2.0,-999.0,77,-99.99,,,0.02,weatherlink.com 1.10,2013-07-08 23:19:00,
2013-07-08 20:04:00,82.2,74.0,30.05,NE,40,0.0,-999.0,76,-99.99,,,0.03,weatherlink.com 1.10,2013-07-09 00:04:00,
2013-07-08 21:34:00,82.5,73.0,30.08,NNE,15,3.0,-999.0,72,-99.99,,,0.03,weatherlink.com 1.10,2013-07-09 01:34:00,
2013-07-08 22:04:00,82.5,73.0,30.09,NE,37,3.0,-999.0,73,-99.99,,,0.03,weatherlink.com 1.10,2013-07-09 02:04:00,
2013-07-08 22:19:00,82.2,73.0,30.09,NE,38,5.0,-999.0,74,-99.99,,,0.03,weatherlink.com 1.10,2013-07-09 02:19:00,
2013-07-08 22:34:00,82.3,72.0,30.09,NE,46,1.0,-999.0,72,-99.99,,,0.03,weatherlink.com 1.10,2013-07-09 02:34:00,
2013-07-08 22:49:00,82.5,73.0,30.09,NE,52,6.0,-999.0,74,-99.99,,,0.03,weatherlink.com 1.10,2013-07-09 02:49:00,
2013-07-08 23:19:00,82.1,73.0,30.09,ENE,63,2.0,-999.0,74,-99.99,,,0.03,weatherlink.com 1.10,2013-07-09 03:19:00,
2013-07-08 23:34:00,81.2,73.0,30.10,ENE,65,3.0,-999.0,75,-99.99,,,0.03,weatherlink.com 1.10,2013-07-09 03:34:00,